sensor_id;sensor_type;location;lat;lon;timestamp;temperature;humidity
17998;DHT22;9124;48.144;17.098;2022-07-25T00:01:11;26.60;44.60
17998;DHT22;9124;48.144;17.098;2022-07-25T00:04:47;26.60;44.50
17998;DHT22;9124;48.144;17.098;2022-07-25T00:08:24;26.70;44.50
17998;DHT22;9124;48.144;17.098;2022-07-25T00:12:01;26.70;44.40
17998;DHT22;9124;48.144;17.098;2022-07-25T00:15:38;26.70;44.30
17998;DHT22;9124;48.144;17.098;2022-07-25T00:19:14;26.70;44.30
17998;DHT22;9124;48.144;17.098;2022-07-25T00:22:52;26.70;44.20
17998;DHT22;9124;48.144;17.098;2022-07-25T00:26:28;26.60;44.00
17998;DHT22;9124;48.144;17.098;2022-07-25T00:30:05;26.50;44.00
17998;DHT22;9124;48.144;17.098;2022-07-25T00:33:42;26.40;43.70
17998;DHT22;9124;48.144;17.098;2022-07-25T00:37:19;26.20;43.80
17998;DHT22;9124;48.144;17.098;2022-07-25T00:40:55;26.10;43.80
17998;DHT22;9124;48.144;17.098;2022-07-25T00:44:33;26.10;43.80
17998;DHT22;9124;48.144;17.098;2022-07-25T00:48:09;26.00;43.80
17998;DHT22;9124;48.144;17.098;2022-07-25T00:51:47;26.00;43.90
17998;DHT22;9124;48.144;17.098;2022-07-25T00:55:24;26.00;43.80
17998;DHT22;9124;48.144;17.098;2022-07-25T00:59:03;26.00;44.00
17998;DHT22;9124;48.144;17.098;2022-07-25T01:02:41;26.00;44.00
17998;DHT22;9124;48.144;17.098;2022-07-25T01:06:18;25.90;44.00
17998;DHT22;9124;48.144;17.098;2022-07-25T01:09:57;25.90;44.10
17998;DHT22;9124;48.144;17.098;2022-07-25T01:13:34;25.90;44.10
17998;DHT22;9124;48.144;17.098;2022-07-25T01:17:11;26.00;44.10
17998;DHT22;9124;48.144;17.098;2022-07-25T01:20:48;26.00;44.20
17998;DHT22;9124;48.144;17.098;2022-07-25T01:24:25;26.00;44.10
17998;DHT22;9124;48.144;17.098;2022-07-25T01:28:02;26.00;44.10
17998;DHT22;9124;48.144;17.098;2022-07-25T01:31:39;26.00;44.10
17998;DHT22;9124;48.144;17.098;2022-07-25T01:35:16;25.80;44.10
17998;DHT22;9124;48.144;17.098;2022-07-25T01:38:53;25.80;44.20
17998;DHT22;9124;48.144;17.098;2022-07-25T01:42:29;25.80;44.20
17998;DHT22;9124;48.144;17.098;2022-07-25T01:46:06;25.90;44.30
17998;DHT22;9124;48.144;17.098;2022-07-25T01:49:43;26.00;44.30
17998;DHT22;9124;48.144;17.098;2022-07-25T01:53:20;26.00;44.30
17998;DHT22;9124;48.144;17.098;2022-07-25T01:56:57;26.00;44.20
17998;DHT22;9124;48.144;17.098;2022-07-25T02:00:33;26.00;44.20
17998;DHT22;9124;48.144;17.098;2022-07-25T02:04:10;26.00;44.20
17998;DHT22;9124;48.144;17.098;2022-07-25T02:07:47;26.00;44.20
17998;DHT22;9124;48.144;17.098;2022-07-25T02:11:24;26.00;44.10
17998;DHT22;9124;48.144;17.098;2022-07-25T02:15:01;26.00;44.10
17998;DHT22;9124;48.144;17.098;2022-07-25T02:18:38;26.00;44.10
17998;DHT22;9124;48.144;17.098;2022-07-25T02:22:14;26.00;44.00
17998;DHT22;9124;48.144;17.098;2022-07-25T02:25:51;25.80;43.90
17998;DHT22;9124;48.144;17.098;2022-07-25T02:29:28;25.70;44.00
17998;DHT22;9124;48.144;17.098;2022-07-25T02:33:05;25.70;44.00
17998;DHT22;9124;48.144;17.098;2022-07-25T02:36:42;25.80;44.10
17998;DHT22;9124;48.144;17.098;2022-07-25T02:40:19;25.80;44.70
17998;DHT22;9124;48.144;17.098;2022-07-25T02:43:56;25.80;44.10
17998;DHT22;9124;48.144;17.098;2022-07-25T02:47:33;25.80;44.10
17998;DHT22;9124;48.144;17.098;2022-07-25T02:51:10;25.80;44.00
17998;DHT22;9124;48.144;17.098;2022-07-25T02:54:47;25.70;44.00
17998;DHT22;9124;48.144;17.098;2022-07-25T02:58:24;25.70;44.00
17998;DHT22;9124;48.144;17.098;2022-07-25T03:02:01;25.60;44.00
17998;DHT22;9124;48.144;17.098;2022-07-25T03:05:37;25.60;44.00
17998;DHT22;9124;48.144;17.098;2022-07-25T03:09:14;25.60;44.00
17998;DHT22;9124;48.144;17.098;2022-07-25T03:12:51;25.60;44.10
17998;DHT22;9124;48.144;17.098;2022-07-25T03:16:28;25.60;44.00
17998;DHT22;9124;48.144;17.098;2022-07-25T03:20:06;25.70;44.10
17998;DHT22;9124;48.144;17.098;2022-07-25T03:23:43;25.70;44.00
17998;DHT22;9124;48.144;17.098;2022-07-25T03:27:20;25.70;44.00
17998;DHT22;9124;48.144;17.098;2022-07-25T03:30:57;25.70;44.00
17998;DHT22;9124;48.144;17.098;2022-07-25T03:34:34;25.60;44.00
17998;DHT22;9124;48.144;17.098;2022-07-25T03:38:11;25.70;44.00
17998;DHT22;9124;48.144;17.098;2022-07-25T03:41:48;25.70;44.00
17998;DHT22;9124;48.144;17.098;2022-07-25T03:45:25;25.80;44.00
17998;DHT22;9124;48.144;17.098;2022-07-25T03:49:01;25.70;44.00
17998;DHT22;9124;48.144;17.098;2022-07-25T03:52:39;25.70;44.10
17998;DHT22;9124;48.144;17.098;2022-07-25T03:56:15;25.50;44.20
17998;DHT22;9124;48.144;17.098;2022-07-25T03:59:53;25.40;44.40
17998;DHT22;9124;48.144;17.098;2022-07-25T04:03:29;25.30;44.60
17998;DHT22;9124;48.144;17.098;2022-07-25T04:07:06;25.20;44.70
17998;DHT22;9124;48.144;17.098;2022-07-25T04:10:43;25.10;44.90
17998;DHT22;9124;48.144;17.098;2022-07-25T04:14:20;25.10;45.00
17998;DHT22;9124;48.144;17.098;2022-07-25T04:17:56;25.00;45.10
17998;DHT22;9124;48.144;17.098;2022-07-25T04:21:34;25.00;45.20
17998;DHT22;9124;48.144;17.098;2022-07-25T04:25:10;24.90;45.20
17998;DHT22;9124;48.144;17.098;2022-07-25T04:28:47;24.80;45.20
17998;DHT22;9124;48.144;17.098;2022-07-25T04:32:24;24.80;45.30
17998;DHT22;9124;48.144;17.098;2022-07-25T04:36:01;24.70;45.30
17998;DHT22;9124;48.144;17.098;2022-07-25T04:39:38;24.70;45.90
17998;DHT22;9124;48.144;17.098;2022-07-25T04:43:15;24.80;45.30
17998;DHT22;9124;48.144;17.098;2022-07-25T04:46:51;24.80;45.20
17998;DHT22;9124;48.144;17.098;2022-07-25T04:50:28;24.80;45.20
17998;DHT22;9124;48.144;17.098;2022-07-25T04:54:05;24.80;45.10
17998;DHT22;9124;48.144;17.098;2022-07-25T04:57:42;24.80;45.00
17998;DHT22;9124;48.144;17.098;2022-07-25T05:01:19;24.80;45.10
17998;DHT22;9124;48.144;17.098;2022-07-25T05:04:55;24.80;45.10
17998;DHT22;9124;48.144;17.098;2022-07-25T05:08:32;24.90;45.00
17998;DHT22;9124;48.144;17.098;2022-07-25T05:12:09;25.00;45.00
17998;DHT22;9124;48.144;17.098;2022-07-25T05:15:46;25.00;45.00
17998;DHT22;9124;48.144;17.098;2022-07-25T05:19:22;25.10;44.90
17998;DHT22;9124;48.144;17.098;2022-07-25T05:22:59;25.10;44.90
17998;DHT22;9124;48.144;17.098;2022-07-25T05:26:36;25.10;44.80
17998;DHT22;9124;48.144;17.098;2022-07-25T05:30:13;25.10;44.70
17998;DHT22;9124;48.144;17.098;2022-07-25T05:33:50;25.10;44.70
17998;DHT22;9124;48.144;17.098;2022-07-25T05:37:27;25.20;44.70
17998;DHT22;9124;48.144;17.098;2022-07-25T05:41:04;25.20;44.60
17998;DHT22;9124;48.144;17.098;2022-07-25T05:44:40;25.20;44.60
17998;DHT22;9124;48.144;17.098;2022-07-25T05:48:17;25.30;44.50
17998;DHT22;9124;48.144;17.098;2022-07-25T05:51:54;25.30;44.50
17998;DHT22;9124;48.144;17.098;2022-07-25T05:55:31;25.40;44.50
17998;DHT22;9124;48.144;17.098;2022-07-25T05:59:07;25.50;44.40
17998;DHT22;9124;48.144;17.098;2022-07-25T06:02:44;25.60;44.30
17998;DHT22;9124;48.144;17.098;2022-07-25T06:06:21;25.60;44.20
17998;DHT22;9124;48.144;17.098;2022-07-25T06:10:00;25.70;44.20
17998;DHT22;9124;48.144;17.098;2022-07-25T06:13:37;25.70;44.10
17998;DHT22;9124;48.144;17.098;2022-07-25T06:17:17;25.80;44.10
17998;DHT22;9124;48.144;17.098;2022-07-25T06:20:53;25.80;44.00
17998;DHT22;9124;48.144;17.098;2022-07-25T06:24:30;25.90;44.00
17998;DHT22;9124;48.144;17.098;2022-07-25T06:28:07;26.00;44.00
17998;DHT22;9124;48.144;17.098;2022-07-25T06:31:44;26.00;44.00
17998;DHT22;9124;48.144;17.098;2022-07-25T06:35:24;26.20;44.00
17998;DHT22;9124;48.144;17.098;2022-07-25T06:39:01;26.20;43.90
17998;DHT22;9124;48.144;17.098;2022-07-25T06:42:42;26.30;43.90
17998;DHT22;9124;48.144;17.098;2022-07-25T06:46:20;26.30;43.90
17998;DHT22;9124;48.144;17.098;2022-07-25T06:49:56;26.40;44.00
17998;DHT22;9124;48.144;17.098;2022-07-25T06:53:33;26.40;44.00
17998;DHT22;9124;48.144;17.098;2022-07-25T06:57:10;26.40;44.00
17998;DHT22;9124;48.144;17.098;2022-07-25T07:00:47;26.50;44.00
17998;DHT22;9124;48.144;17.098;2022-07-25T07:04:24;26.50;44.00
17998;DHT22;9124;48.144;17.098;2022-07-25T07:08:01;26.50;43.90
17998;DHT22;9124;48.144;17.098;2022-07-25T07:11:38;26.60;44.00
17998;DHT22;9124;48.144;17.098;2022-07-25T07:15:16;26.60;43.90
17998;DHT22;9124;48.144;17.098;2022-07-25T07:18:52;26.70;44.00
17998;DHT22;9124;48.144;17.098;2022-07-25T07:22:29;26.70;43.90
17998;DHT22;9124;48.144;17.098;2022-07-25T07:26:06;26.70;43.90
17998;DHT22;9124;48.144;17.098;2022-07-25T07:29:43;26.70;43.90
17998;DHT22;9124;48.144;17.098;2022-07-25T07:33:19;26.80;44.00
17998;DHT22;9124;48.144;17.098;2022-07-25T07:36:57;26.80;44.00
17998;DHT22;9124;48.144;17.098;2022-07-25T07:40:33;26.80;44.00
17998;DHT22;9124;48.144;17.098;2022-07-25T07:44:10;26.90;44.00
17998;DHT22;9124;48.144;17.098;2022-07-25T07:47:49;26.90;44.00
17998;DHT22;9124;48.144;17.098;2022-07-25T07:51:26;26.90;44.00
17998;DHT22;9124;48.144;17.098;2022-07-25T07:55:04;26.90;44.00
17998;DHT22;9124;48.144;17.098;2022-07-25T07:58:59;27.00;44.10
17998;DHT22;9124;48.144;17.098;2022-07-25T08:02:48;27.00;44.10
17998;DHT22;9124;48.144;17.098;2022-07-25T08:06:25;27.00;44.20
17998;DHT22;9124;48.144;17.098;2022-07-25T08:10:03;27.00;44.20
17998;DHT22;9124;48.144;17.098;2022-07-25T08:13:41;27.10;44.30
17998;DHT22;9124;48.144;17.098;2022-07-25T08:17:17;27.10;44.30
17998;DHT22;9124;48.144;17.098;2022-07-25T08:20:55;27.10;44.40
17998;DHT22;9124;48.144;17.098;2022-07-25T08:24:31;27.10;44.40
17998;DHT22;9124;48.144;17.098;2022-07-25T08:28:08;27.10;44.50
17998;DHT22;9124;48.144;17.098;2022-07-25T08:31:45;27.10;44.50
17998;DHT22;9124;48.144;17.098;2022-07-25T08:35:23;27.20;44.60
17998;DHT22;9124;48.144;17.098;2022-07-25T08:39:00;27.20;44.70
17998;DHT22;9124;48.144;17.098;2022-07-25T08:42:37;27.20;44.80
17998;DHT22;9124;48.144;17.098;2022-07-25T08:46:15;27.20;44.80
17998;DHT22;9124;48.144;17.098;2022-07-25T08:49:52;27.30;45.00
17998;DHT22;9124;48.144;17.098;2022-07-25T08:53:29;27.30;45.00
17998;DHT22;9124;48.144;17.098;2022-07-25T08:57:07;27.30;45.10
17998;DHT22;9124;48.144;17.098;2022-07-25T09:00:44;27.30;45.10
17998;DHT22;9124;48.144;17.098;2022-07-25T09:04:21;27.30;45.20
17998;DHT22;9124;48.144;17.098;2022-07-25T09:08:12;27.30;45.30
17998;DHT22;9124;48.144;17.098;2022-07-25T09:11:50;27.30;45.40
17998;DHT22;9124;48.144;17.098;2022-07-25T09:15:36;27.40;45.50
17998;DHT22;9124;48.144;17.098;2022-07-25T09:19:37;27.40;45.60
17998;DHT22;9124;48.144;17.098;2022-07-25T09:27:08;27.40;45.70
17998;DHT22;9124;48.144;17.098;2022-07-25T09:30:57;27.40;45.80
17998;DHT22;9124;48.144;17.098;2022-07-25T09:34:39;27.40;45.80
17998;DHT22;9124;48.144;17.098;2022-07-25T09:38:17;27.50;46.00
17998;DHT22;9124;48.144;17.098;2022-07-25T09:41:54;27.40;46.00
17998;DHT22;9124;48.144;17.098;2022-07-25T09:45:31;27.40;46.00
17998;DHT22;9124;48.144;17.098;2022-07-25T09:49:08;27.50;46.10
17998;DHT22;9124;48.144;17.098;2022-07-25T09:52:45;27.50;46.20
17998;DHT22;9124;48.144;17.098;2022-07-25T09:56:22;27.50;46.30
17998;DHT22;9124;48.144;17.098;2022-07-25T10:00:00;27.50;46.30
17998;DHT22;9124;48.144;17.098;2022-07-25T10:04:36;27.50;46.40
17998;DHT22;9124;48.144;17.098;2022-07-25T10:07:53;27.50;46.50
17998;DHT22;9124;48.144;17.098;2022-07-25T10:11:31;27.50;46.50
17998;DHT22;9124;48.144;17.098;2022-07-25T10:18:54;27.50;46.60
17998;DHT22;9124;48.144;17.098;2022-07-25T10:22:44;27.60;46.70
17998;DHT22;9124;48.144;17.098;2022-07-25T10:26:21;27.50;46.70
17998;DHT22;9124;48.144;17.098;2022-07-25T10:29:59;27.50;46.70
17998;DHT22;9124;48.144;17.098;2022-07-25T10:33:40;27.60;46.80
17998;DHT22;9124;48.144;17.098;2022-07-25T10:37:25;27.60;46.90
17998;DHT22;9124;48.144;17.098;2022-07-25T10:41:03;27.60;46.90
17998;DHT22;9124;48.144;17.098;2022-07-25T10:44:47;27.60;47.00
17998;DHT22;9124;48.144;17.098;2022-07-25T10:48:30;27.60;47.00
17998;DHT22;9124;48.144;17.098;2022-07-25T10:52:13;27.60;47.10
17998;DHT22;9124;48.144;17.098;2022-07-25T10:55:56;27.60;47.10
17998;DHT22;9124;48.144;17.098;2022-07-25T10:59:36;27.60;47.20
17998;DHT22;9124;48.144;17.098;2022-07-25T11:03:13;27.60;47.20
17998;DHT22;9124;48.144;17.098;2022-07-25T11:06:50;27.60;47.20
17998;DHT22;9124;48.144;17.098;2022-07-25T11:10:27;27.70;47.40
17998;DHT22;9124;48.144;17.098;2022-07-25T11:14:12;27.60;47.30
17998;DHT22;9124;48.144;17.098;2022-07-25T11:17:50;27.60;47.30
17998;DHT22;9124;48.144;17.098;2022-07-25T11:21:27;27.70;47.50
17998;DHT22;9124;48.144;17.098;2022-07-25T11:25:12;27.70;47.50
17998;DHT22;9124;48.144;17.098;2022-07-25T11:28:49;27.70;47.50
17998;DHT22;9124;48.144;17.098;2022-07-25T11:32:26;27.70;47.50
17998;DHT22;9124;48.144;17.098;2022-07-25T11:36:04;27.70;47.60
17998;DHT22;9124;48.144;17.098;2022-07-25T11:39:43;27.80;47.70
17998;DHT22;9124;48.144;17.098;2022-07-25T11:43:22;27.80;47.70
17998;DHT22;9124;48.144;17.098;2022-07-25T11:46:59;27.80;47.70
17998;DHT22;9124;48.144;17.098;2022-07-25T11:50:39;27.80;47.80
17998;DHT22;9124;48.144;17.098;2022-07-25T11:54:16;27.80;47.80
17998;DHT22;9124;48.144;17.098;2022-07-25T11:57:58;27.80;47.80
17998;DHT22;9124;48.144;17.098;2022-07-25T12:01:40;27.80;47.90
17998;DHT22;9124;48.144;17.098;2022-07-25T12:05:21;27.80;47.90
17998;DHT22;9124;48.144;17.098;2022-07-25T12:09:13;27.80;47.90
17998;DHT22;9124;48.144;17.098;2022-07-25T12:12:55;27.90;48.00
17998;DHT22;9124;48.144;17.098;2022-07-25T12:16:33;27.90;48.10
17998;DHT22;9124;48.144;17.098;2022-07-25T12:20:17;27.90;48.10
17998;DHT22;9124;48.144;17.098;2022-07-25T12:23:55;27.90;48.10
17998;DHT22;9124;48.144;17.098;2022-07-25T12:27:31;27.90;48.10
17998;DHT22;9124;48.144;17.098;2022-07-25T12:31:08;27.90;48.20
17998;DHT22;9124;48.144;17.098;2022-07-25T12:34:45;27.90;48.20
17998;DHT22;9124;48.144;17.098;2022-07-25T12:38:22;28.00;48.30
17998;DHT22;9124;48.144;17.098;2022-07-25T12:41:59;28.00;48.30
17998;DHT22;9124;48.144;17.098;2022-07-25T12:45:35;28.00;48.30
17998;DHT22;9124;48.144;17.098;2022-07-25T12:49:12;28.00;48.40
17998;DHT22;9124;48.144;17.098;2022-07-25T12:52:49;28.00;48.40
17998;DHT22;9124;48.144;17.098;2022-07-25T12:56:26;28.00;48.40
17998;DHT22;9124;48.144;17.098;2022-07-25T13:00:05;28.00;48.40
17998;DHT22;9124;48.144;17.098;2022-07-25T13:03:43;28.00;48.50
17998;DHT22;9124;48.144;17.098;2022-07-25T13:07:20;28.00;48.50
17998;DHT22;9124;48.144;17.098;2022-07-25T13:10:56;28.00;48.50
17998;DHT22;9124;48.144;17.098;2022-07-25T13:14:33;28.00;49.20
17998;DHT22;9124;48.144;17.098;2022-07-25T13:18:10;28.10;48.70
17998;DHT22;9124;48.144;17.098;2022-07-25T13:21:47;28.10;48.70
17998;DHT22;9124;48.144;17.098;2022-07-25T13:25:24;28.10;49.30
17998;DHT22;9124;48.144;17.098;2022-07-25T13:29:01;28.10;48.70
17998;DHT22;9124;48.144;17.098;2022-07-25T13:32:38;28.10;48.80
17998;DHT22;9124;48.144;17.098;2022-07-25T13:36:15;28.10;48.80
17998;DHT22;9124;48.144;17.098;2022-07-25T13:39:52;28.10;48.80
17998;DHT22;9124;48.144;17.098;2022-07-25T13:43:29;28.10;48.80
17998;DHT22;9124;48.144;17.098;2022-07-25T13:47:05;28.10;48.90
17998;DHT22;9124;48.144;17.098;2022-07-25T13:50:42;28.10;48.90
17998;DHT22;9124;48.144;17.098;2022-07-25T13:54:19;28.10;48.90
17998;DHT22;9124;48.144;17.098;2022-07-25T13:57:56;28.10;48.90
17998;DHT22;9124;48.144;17.098;2022-07-25T14:01:33;28.10;48.90
17998;DHT22;9124;48.144;17.098;2022-07-25T14:05:10;28.10;48.90
17998;DHT22;9124;48.144;17.098;2022-07-25T14:08:47;28.10;49.00
17998;DHT22;9124;48.144;17.098;2022-07-25T14:12:24;28.20;49.10
17998;DHT22;9124;48.144;17.098;2022-07-25T14:16:01;28.20;49.10
17998;DHT22;9124;48.144;17.098;2022-07-25T14:19:38;28.20;49.10
17998;DHT22;9124;48.144;17.098;2022-07-25T14:23:14;28.20;49.10
17998;DHT22;9124;48.144;17.098;2022-07-25T14:26:51;28.20;49.10
17998;DHT22;9124;48.144;17.098;2022-07-25T14:30:29;28.20;49.20
17998;DHT22;9124;48.144;17.098;2022-07-25T14:34:06;28.20;49.20
17998;DHT22;9124;48.144;17.098;2022-07-25T14:37:43;28.20;49.20
17998;DHT22;9124;48.144;17.098;2022-07-25T14:41:21;28.20;49.20
17998;DHT22;9124;48.144;17.098;2022-07-25T14:44:58;28.20;49.20
17998;DHT22;9124;48.144;17.098;2022-07-25T14:48:36;28.30;49.30
17998;DHT22;9124;48.144;17.098;2022-07-25T14:52:13;28.20;49.20
17998;DHT22;9124;48.144;17.098;2022-07-25T14:55:51;28.20;49.30
17998;DHT22;9124;48.144;17.098;2022-07-25T14:59:27;28.20;49.30
17998;DHT22;9124;48.144;17.098;2022-07-25T15:03:04;28.20;49.30
17998;DHT22;9124;48.144;17.098;2022-07-25T15:06:42;28.30;49.40
17998;DHT22;9124;48.144;17.098;2022-07-25T15:10:18;28.30;49.40
17998;DHT22;9124;48.144;17.098;2022-07-25T15:13:55;28.30;49.40
17998;DHT22;9124;48.144;17.098;2022-07-25T15:17:33;28.30;49.40
17998;DHT22;9124;48.144;17.098;2022-07-25T15:21:10;28.30;49.40
17998;DHT22;9124;48.144;17.098;2022-07-25T15:24:46;28.30;49.50
17998;DHT22;9124;48.144;17.098;2022-07-25T15:28:23;28.30;50.10
17998;DHT22;9124;48.144;17.098;2022-07-25T15:32:00;28.30;49.50
17998;DHT22;9124;48.144;17.098;2022-07-25T15:35:42;28.30;49.50
17998;DHT22;9124;48.144;17.098;2022-07-25T15:39:20;28.30;49.50
17998;DHT22;9124;48.144;17.098;2022-07-25T15:42:58;28.30;49.50
17998;DHT22;9124;48.144;17.098;2022-07-25T15:46:38;28.40;49.50
17998;DHT22;9124;48.144;17.098;2022-07-25T15:50:18;28.30;49.50
17998;DHT22;9124;48.144;17.098;2022-07-25T15:53:55;28.30;49.50
17998;DHT22;9124;48.144;17.098;2022-07-25T15:57:32;28.30;49.50
17998;DHT22;9124;48.144;17.098;2022-07-25T16:01:09;28.40;49.60
17998;DHT22;9124;48.144;17.098;2022-07-25T16:04:45;28.40;49.60
17998;DHT22;9124;48.144;17.098;2022-07-25T16:08:22;28.40;49.60
17998;DHT22;9124;48.144;17.098;2022-07-25T16:11:59;28.40;49.60
17998;DHT22;9124;48.144;17.098;2022-07-25T16:15:36;28.40;49.60
17998;DHT22;9124;48.144;17.098;2022-07-25T16:19:13;28.40;49.60
17998;DHT22;9124;48.144;17.098;2022-07-25T16:22:51;28.40;49.60
17998;DHT22;9124;48.144;17.098;2022-07-25T16:26:33;28.40;49.60
17998;DHT22;9124;48.144;17.098;2022-07-25T16:30:10;28.40;49.60
17998;DHT22;9124;48.144;17.098;2022-07-25T16:33:47;28.40;49.60
17998;DHT22;9124;48.144;17.098;2022-07-25T16:37:24;28.40;49.60
17998;DHT22;9124;48.144;17.098;2022-07-25T16:41:00;28.40;49.70
17998;DHT22;9124;48.144;17.098;2022-07-25T16:44:37;28.40;49.70
17998;DHT22;9124;48.144;17.098;2022-07-25T16:48:14;28.40;49.70
17998;DHT22;9124;48.144;17.098;2022-07-25T16:51:51;28.40;49.70
17998;DHT22;9124;48.144;17.098;2022-07-25T16:55:28;28.40;49.70
17998;DHT22;9124;48.144;17.098;2022-07-25T16:59:05;28.40;49.70
17998;DHT22;9124;48.144;17.098;2022-07-25T17:02:42;28.40;49.80
17998;DHT22;9124;48.144;17.098;2022-07-25T17:06:20;28.40;49.70
17998;DHT22;9124;48.144;17.098;2022-07-25T17:09:57;28.40;49.80
17998;DHT22;9124;48.144;17.098;2022-07-25T17:13:33;28.40;49.80
17998;DHT22;9124;48.144;17.098;2022-07-25T17:17:10;28.50;49.90
17998;DHT22;9124;48.144;17.098;2022-07-25T17:20:47;28.50;49.90
17998;DHT22;9124;48.144;17.098;2022-07-25T17:24:24;28.40;49.90
17998;DHT22;9124;48.144;17.098;2022-07-25T17:28:01;28.40;49.90
17998;DHT22;9124;48.144;17.098;2022-07-25T17:31:38;28.40;49.90
17998;DHT22;9124;48.144;17.098;2022-07-25T17:35:14;28.40;50.00
17998;DHT22;9124;48.144;17.098;2022-07-25T17:38:51;28.40;50.00
17998;DHT22;9124;48.144;17.098;2022-07-25T17:42:28;28.50;50.10
17998;DHT22;9124;48.144;17.098;2022-07-25T17:46:05;28.50;50.10
17998;DHT22;9124;48.144;17.098;2022-07-25T17:49:43;28.50;50.10
17998;DHT22;9124;48.144;17.098;2022-07-25T17:53:20;28.50;50.10
17998;DHT22;9124;48.144;17.098;2022-07-25T17:56:57;28.50;50.10
17998;DHT22;9124;48.144;17.098;2022-07-25T18:00:34;28.50;50.10
17998;DHT22;9124;48.144;17.098;2022-07-25T18:04:11;28.50;50.10
17998;DHT22;9124;48.144;17.098;2022-07-25T18:07:49;28.50;50.20
17998;DHT22;9124;48.144;17.098;2022-07-25T18:11:26;28.50;50.70
17998;DHT22;9124;48.144;17.098;2022-07-25T18:15:04;28.50;50.20
17998;DHT22;9124;48.144;17.098;2022-07-25T18:18:40;28.50;50.20
17998;DHT22;9124;48.144;17.098;2022-07-25T18:22:17;28.50;50.20
17998;DHT22;9124;48.144;17.098;2022-07-25T18:25:54;28.50;50.20
17998;DHT22;9124;48.144;17.098;2022-07-25T18:29:31;28.50;50.20
17998;DHT22;9124;48.144;17.098;2022-07-25T18:33:11;28.50;50.20
17998;DHT22;9124;48.144;17.098;2022-07-25T18:36:48;28.50;50.20
17998;DHT22;9124;48.144;17.098;2022-07-25T18:40:24;28.50;50.20
17998;DHT22;9124;48.144;17.098;2022-07-25T18:44:02;28.50;50.20
17998;DHT22;9124;48.144;17.098;2022-07-25T18:47:39;28.50;50.20
17998;DHT22;9124;48.144;17.098;2022-07-25T18:51:16;28.50;50.20
17998;DHT22;9124;48.144;17.098;2022-07-25T18:54:53;28.50;50.20
17998;DHT22;9124;48.144;17.098;2022-07-25T18:58:29;28.50;50.20
17998;DHT22;9124;48.144;17.098;2022-07-25T19:02:06;28.50;50.20
17998;DHT22;9124;48.144;17.098;2022-07-25T19:05:43;28.50;50.20
17998;DHT22;9124;48.144;17.098;2022-07-25T19:09:20;28.50;50.20
17998;DHT22;9124;48.144;17.098;2022-07-25T19:12:57;28.50;50.20
17998;DHT22;9124;48.144;17.098;2022-07-25T19:16:34;28.50;50.20
17998;DHT22;9124;48.144;17.098;2022-07-25T19:20:10;28.50;50.20
17998;DHT22;9124;48.144;17.098;2022-07-25T19:23:47;28.50;50.20
17998;DHT22;9124;48.144;17.098;2022-07-25T19:27:24;28.50;50.30
17998;DHT22;9124;48.144;17.098;2022-07-25T19:31:02;28.50;50.80
17998;DHT22;9124;48.144;17.098;2022-07-25T19:34:39;28.50;50.30
17998;DHT22;9124;48.144;17.098;2022-07-25T19:38:16;28.50;50.30
17998;DHT22;9124;48.144;17.098;2022-07-25T19:41:53;28.50;50.30
17998;DHT22;9124;48.144;17.098;2022-07-25T19:45:30;28.50;50.30
17998;DHT22;9124;48.144;17.098;2022-07-25T19:49:08;28.50;50.30
17998;DHT22;9124;48.144;17.098;2022-07-25T19:52:45;28.50;50.30
17998;DHT22;9124;48.144;17.098;2022-07-25T19:56:21;28.50;50.30
17998;DHT22;9124;48.144;17.098;2022-07-25T19:59:58;28.50;50.30
17998;DHT22;9124;48.144;17.098;2022-07-25T20:03:34;28.50;50.30
17998;DHT22;9124;48.144;17.098;2022-07-25T20:07:11;28.50;50.30
17998;DHT22;9124;48.144;17.098;2022-07-25T20:10:48;28.50;50.30
17998;DHT22;9124;48.144;17.098;2022-07-25T20:14:26;28.50;50.30
17998;DHT22;9124;48.144;17.098;2022-07-25T20:18:02;28.50;50.30
17998;DHT22;9124;48.144;17.098;2022-07-25T20:21:39;28.50;50.30
17998;DHT22;9124;48.144;17.098;2022-07-25T20:25:16;28.50;50.30
17998;DHT22;9124;48.144;17.098;2022-07-25T20:28:53;28.50;50.30
17998;DHT22;9124;48.144;17.098;2022-07-25T20:32:30;28.50;50.30
17998;DHT22;9124;48.144;17.098;2022-07-25T20:36:07;28.50;50.40
17998;DHT22;9124;48.144;17.098;2022-07-25T20:39:44;28.50;50.40
17998;DHT22;9124;48.144;17.098;2022-07-25T20:43:21;28.50;50.40
17998;DHT22;9124;48.144;17.098;2022-07-25T20:46:57;28.50;50.40
17998;DHT22;9124;48.144;17.098;2022-07-25T20:50:38;28.50;50.40
17998;DHT22;9124;48.144;17.098;2022-07-25T20:54:15;28.50;50.40
17998;DHT22;9124;48.144;17.098;2022-07-25T20:57:53;28.50;50.40
17998;DHT22;9124;48.144;17.098;2022-07-25T21:01:30;28.50;50.40
17998;DHT22;9124;48.144;17.098;2022-07-25T21:05:07;28.50;50.50
17998;DHT22;9124;48.144;17.098;2022-07-25T21:08:44;28.50;50.50
17998;DHT22;9124;48.144;17.098;2022-07-25T21:12:21;28.50;50.50
17998;DHT22;9124;48.144;17.098;2022-07-25T21:15:58;28.50;50.50
17998;DHT22;9124;48.144;17.098;2022-07-25T21:19:35;28.50;50.50
17998;DHT22;9124;48.144;17.098;2022-07-25T21:23:11;28.50;50.50
17998;DHT22;9124;48.144;17.098;2022-07-25T21:26:49;28.50;50.50
17998;DHT22;9124;48.144;17.098;2022-07-25T21:30:27;28.50;50.50
17998;DHT22;9124;48.144;17.098;2022-07-25T21:34:03;28.50;50.50
17998;DHT22;9124;48.144;17.098;2022-07-25T21:37:40;28.50;50.50
17998;DHT22;9124;48.144;17.098;2022-07-25T21:41:17;28.50;50.50
17998;DHT22;9124;48.144;17.098;2022-07-25T21:44:53;28.50;50.50
17998;DHT22;9124;48.144;17.098;2022-07-25T21:48:30;28.50;50.50
17998;DHT22;9124;48.144;17.098;2022-07-25T21:52:26;28.50;50.50
17998;DHT22;9124;48.144;17.098;2022-07-25T21:56:03;28.50;50.50
17998;DHT22;9124;48.144;17.098;2022-07-25T21:59:44;28.50;50.50
17998;DHT22;9124;48.144;17.098;2022-07-25T22:03:20;28.50;50.50
17998;DHT22;9124;48.144;17.098;2022-07-25T22:06:57;28.50;50.50
17998;DHT22;9124;48.144;17.098;2022-07-25T22:10:34;28.50;50.50
17998;DHT22;9124;48.144;17.098;2022-07-25T22:14:11;28.60;50.60
17998;DHT22;9124;48.144;17.098;2022-07-25T22:17:48;28.60;50.60
17998;DHT22;9124;48.144;17.098;2022-07-25T22:21:25;28.60;50.60
17998;DHT22;9124;48.144;17.098;2022-07-25T22:25:02;28.50;50.50
17998;DHT22;9124;48.144;17.098;2022-07-25T22:28:39;28.60;50.60
17998;DHT22;9124;48.144;17.098;2022-07-25T22:32:16;28.50;50.50
17998;DHT22;9124;48.144;17.098;2022-07-25T22:35:53;28.60;50.60
17998;DHT22;9124;48.144;17.098;2022-07-25T22:39:29;28.60;50.60
17998;DHT22;9124;48.144;17.098;2022-07-25T22:43:06;28.60;50.60
17998;DHT22;9124;48.144;17.098;2022-07-25T22:46:43;28.60;50.60
17998;DHT22;9124;48.144;17.098;2022-07-25T22:50:20;28.60;50.60
17998;DHT22;9124;48.144;17.098;2022-07-25T22:53:58;28.60;50.60
17998;DHT22;9124;48.144;17.098;2022-07-25T22:57:35;28.60;50.60
17998;DHT22;9124;48.144;17.098;2022-07-25T23:01:12;28.60;50.60